Time;durP1;ratioP1;P1;durP2;ratioP2;P2;SDS_P1;SDS_P2;PMS_P1;PMS_P2;Temp;Humidity;BMP_temperature;BMP_pressure;BME280_temperature;BME280_humidity;BME280_pressure;Samples;Min_cycle;Max_cycle;Signal;HPM_P1;HPM_P2
2023/10/19 00:01:08;;;;;;;15.32;7.75;;;9.60;99.90;;;;;;5089656;27;20413;-87
2023/10/19 00:03:35;;;;;;;16.40;7.90;;;9.60;99.90;;;;;;5084319;28;20035;-87
2023/10/19 00:06:01;;;;;;;17.55;7.60;;;9.60;99.90;;;;;;5081586;28;20532;-87
2023/10/19 00:08:36;;;;;;;16.65;7.97;;;9.60;99.90;;;;;;5076862;28;20040;-87
2023/10/19 00:11:04;;;;;;;15.52;7.55;;;9.60;99.90;;;;;;5093697;28;20118;-87
2023/10/19 00:13:30;;;;;;;14.88;7.40;;;9.60;99.90;;;;;;5077082;28;20044;-87
2023/10/19 00:16:00;;;;;;;13.20;6.68;;;9.60;99.90;;;;;;5077081;28;20096;-87
2023/10/19 00:18:25;;;;;;;12.07;6.40;;;9.60;99.90;;;;;;5094009;28;20035;-88
2023/10/19 00:20:53;;;;;;;14.75;7.53;;;9.60;99.90;;;;;;5093705;28;20126;-88
2023/10/19 00:23:31;;;;;;;16.40;7.85;;;9.60;99.90;;;;;;5093528;28;20438;-88
2023/10/19 00:25:58;;;;;;;16.02;8.43;;;9.60;99.90;;;;;;5077151;28;20038;-88
2023/10/19 00:28:26;;;;;;;15.85;8.18;;;9.60;99.90;;;;;;5093402;28;20494;-88
2023/10/19 00:30:53;;;;;;;16.52;8.02;;;9.60;99.90;;;;;;5093731;28;20526;-88
2023/10/19 00:33:26;;;;;;;16.95;8.25;;;9.60;99.90;;;;;;5085170;28;20039;-88
2023/10/19 00:43:42;;;;;;;18.15;8.00;;;9.50;99.90;;;;;;5104436;28;20068;-88
2023/10/19 00:48:53;;;;;;;16.90;8.07;;;9.60;99.90;;;;;;5099258;28;20047;-87
2023/10/19 00:54:16;;;;;;;16.75;7.18;;;9.60;99.90;;;;;;5098425;28;20039;-87
2023/10/19 00:56:48;;;;;;;14.27;6.25;;;9.50;99.90;;;;;;5081278;28;20035;-87
2023/10/19 00:59:23;;;;;;;15.07;7.53;;;9.60;99.90;;;;;;5087255;28;20044;-88
2023/10/19 01:01:55;;;;;;;15.52;7.70;;;9.60;99.90;;;;;;5106216;28;20035;-87
2023/10/19 01:04:31;;;;;;;14.23;7.00;;;9.60;99.90;;;;;;5088438;28;20047;-88
2023/10/19 01:07:15;;;;;;;13.50;6.90;;;9.60;99.90;;;;;;5079743;28;20406;-87
2023/10/19 01:09:45;;;;;;;15.25;7.50;;;9.60;99.90;;;;;;5079818;28;20490;-88
2023/10/19 01:15:13;;;;;;;17.73;8.60;;;9.60;99.90;;;;;;5096617;28;20070;-88
2023/10/19 01:18:01;;;;;;;16.65;8.85;;;9.60;99.90;;;;;;5080145;28;20082;-88
2023/10/19 01:28:42;;;;;;;14.07;8.10;;;9.60;99.90;;;;;;5097029;28;20078;-88
2023/10/19 01:31:22;;;;;;;16.38;9.02;;;9.50;99.90;;;;;;5080436;28;20516;-88
2023/10/19 01:33:49;;;;;;;17.27;8.65;;;9.60;99.90;;;;;;5080030;28;20082;-88
2023/10/19 01:36:24;;;;;;;16.02;8.88;;;9.50;99.90;;;;;;5096426;28;20050;-88
2023/10/19 01:38:55;;;;;;;14.43;6.20;;;9.50;99.90;;;;;;5080536;28;20065;-88
2023/10/19 01:41:23;;;;;;;14.05;7.63;;;9.50;99.90;;;;;;5080726;28;20067;-88
2023/10/19 01:43:53;;;;;;;16.08;8.18;;;9.50;99.90;;;;;;5088165;28;20038;-88
2023/10/19 01:46:31;;;;;;;17.20;8.50;;;9.60;99.90;;;;;;5097789;28;20039;-88
2023/10/19 01:48:56;;;;;;;15.20;8.93;;;9.50;99.90;;;;;;5079295;28;20035;-88
2023/10/19 01:51:27;;;;;;;16.63;8.55;;;9.50;99.90;;;;;;5096529;28;20032;-88
2023/10/19 01:53:55;;;;;;;15.65;7.50;;;9.60;99.90;;;;;;5079751;28;20118;-88
2023/10/19 01:56:21;;;;;;;17.92;8.48;;;9.50;99.90;;;;;;5079676;28;20043;-88
2023/10/19 01:58:48;;;;;;;17.08;9.40;;;9.60;99.90;;;;;;5096101;28;20082;-88
2023/10/19 02:04:00;;;;;;;16.08;8.18;;;9.60;99.90;;;;;;5096407;28;20498;-87
2023/10/19 02:12:06;;;;;;;14.75;7.70;;;9.60;99.90;;;;;;4995871;28;20124;-88
2023/10/19 02:14:33;;;;;;;11.23;7.10;;;9.50;99.90;;;;;;5002365;28;20046;-87
2023/10/19 02:17:00;;;;;;;13.38;6.53;;;9.50;99.90;;;;;;5011777;28;20141;-87
2023/10/19 02:19:29;;;;;;;16.23;8.90;;;9.60;99.90;;;;;;4969824;28;20141;-87
2023/10/19 02:22:07;;;;;;;14.68;7.13;;;9.60;99.90;;;;;;4978907;28;20046;-88
2023/10/19 02:24:32;;;;;;;14.00;7.15;;;9.60;99.90;;;;;;4991967;28;20038;-87
2023/10/19 02:27:01;;;;;;;14.48;7.65;;;9.60;99.90;;;;;;4991338;28;20042;-87
2023/10/19 02:29:26;;;;;;;12.82;7.38;;;9.60;99.90;;;;;;4995191;28;20046;-88
2023/10/19 02:31:54;;;;;;;13.35;7.55;;;9.60;99.90;;;;;;4978661;28;20497;-88
2023/10/19 02:34:19;;;;;;;14.23;7.75;;;9.60;99.90;;;;;;4978677;28;20124;-88
2023/10/19 02:36:47;;;;;;;13.70;7.90;;;9.60;99.90;;;;;;5011348;28;20190;-88
2023/10/19 02:39:14;;;;;;;14.95;7.82;;;9.60;99.90;;;;;;4993388;28;20133;-88
2023/10/19 02:41:45;;;;;;;12.75;6.90;;;9.60;99.90;;;;;;4978027;28;20093;-87
2023/10/19 02:44:22;;;;;;;14.30;6.53;;;9.60;99.90;;;;;;4977671;28;20045;-87
2023/10/19 02:46:58;;;;;;;14.75;6.82;;;9.60;99.90;;;;;;5077184;28;20052;-88
2023/10/19 02:49:25;;;;;;;13.13;7.22;;;9.60;99.90;;;;;;5078005;28;20077;-88
2023/10/19 02:51:52;;;;;;;12.30;6.50;;;9.70;99.90;;;;;;5078099;28;20035;-88
2023/10/19 02:54:24;;;;;;;10.98;5.50;;;9.60;99.90;;;;;;5078326;28;20055;-88
2023/10/19 02:56:51;;;;;;;12.90;6.75;;;9.70;99.90;;;;;;5095399;28;20043;-88
2023/10/19 02:59:22;;;;;;;11.88;5.97;;;9.70;99.90;;;;;;5078426;28;20410;-88
2023/10/19 03:01:48;;;;;;;12.88;6.90;;;9.70;99.90;;;;;;5095336;28;20494;-88
2023/10/19 03:04:15;;;;;;;11.55;6.35;;;9.70;99.90;;;;;;5078414;28;20035;-88
2023/10/19 03:06:41;;;;;;;12.15;6.22;;;9.70;99.90;;;;;;5078235;28;20040;-88
2023/10/19 03:09:23;;;;;;;12.95;7.30;;;9.70;99.90;;;;;;5094908;28;20039;-88
2023/10/19 03:11:52;;;;;;;14.27;6.68;;;9.70;99.90;;;;;;5094749;28;20088;-88
2023/10/19 03:14:18;;;;;;;15.20;7.22;;;9.70;99.90;;;;;;5094636;28;20039;-88
2023/10/19 03:16:45;;;;;;;11.40;6.07;;;9.70;99.90;;;;;;5078242;28;20047;-89
2023/10/19 03:19:12;;;;;;;11.77;6.43;;;9.70;99.90;;;;;;5077907;28;20102;-88
2023/10/19 03:21:48;;;;;;;12.95;7.38;;;9.70;99.90;;;;;;5095101;28;20062;-87
2023/10/19 03:26:59;;;;;;;14.98;7.63;;;9.80;99.90;;;;;;5098314;28;20044;-88
2023/10/19 03:29:31;;;;;;;15.52;8.75;;;9.70;99.90;;;;;;5077367;28;20063;-88
2023/10/19 03:31:58;;;;;;;14.00;7.53;;;9.70;99.90;;;;;;5078078;28;20035;-88
2023/10/19 03:34:24;;;;;;;16.35;7.75;;;9.80;99.90;;;;;;5094575;28;20044;-88
2023/10/19 03:36:50;;;;;;;14.63;7.28;;;9.80;99.90;;;;;;5078101;28;20054;-88
2023/10/19 03:39:17;;;;;;;13.23;6.80;;;9.80;99.90;;;;;;5077173;28;20040;-87
2023/10/19 03:41:44;;;;;;;12.25;6.43;;;9.80;99.90;;;;;;5077688;28;20039;-88
2023/10/19 03:44:20;;;;;;;13.55;7.07;;;9.80;99.90;;;;;;5077405;28;20039;-88
2023/10/19 03:46:57;;;;;;;14.10;7.53;;;9.80;99.90;;;;;;5094408;28;20041;-88
2023/10/19 03:49:26;;;;;;;13.15;7.00;;;9.80;99.90;;;;;;5077248;28;20067;-88
2023/10/19 03:54:39;;;;;;;13.35;7.07;;;9.90;99.90;;;;;;5094877;28;20540;-88
2023/10/19 03:57:08;;;;;;;16.42;8.02;;;9.90;99.90;;;;;;5078056;28;20050;-87
2023/10/19 03:59:34;;;;;;;14.30;7.10;;;9.90;99.90;;;;;;5078080;28;20039;-87
2023/10/19 04:02:02;;;;;;;13.48;6.85;;;9.90;99.90;;;;;;5079005;28;20039;-87
2023/10/19 04:04:29;;;;;;;11.70;5.80;;;9.90;99.90;;;;;;5077172;28;20096;-87
2023/10/19 04:06:58;;;;;;;14.43;8.32;;;9.90;99.90;;;;;;5094554;28;20040;-87
2023/10/19 04:09:28;;;;;;;13.43;7.15;;;9.90;99.90;;;;;;5093144;28;20490;-87
2023/10/19 04:11:57;;;;;;;14.50;7.18;;;9.90;99.90;;;;;;5077153;28;20032;-87
2023/10/19 04:14:23;;;;;;;13.35;6.72;;;9.90;99.90;;;;;;5077075;28;20559;-87
2023/10/19 04:16:49;;;;;;;13.85;6.78;;;9.90;99.90;;;;;;5093896;28;20055;-87
2023/10/19 04:19:15;;;;;;;15.10;6.88;;;10.00;99.90;;;;;;5093630;28;20156;-88
2023/10/19 04:21:46;;;;;;;12.50;6.55;;;9.90;99.90;;;;;;5077438;28;20039;-88
2023/10/19 04:24:13;;;;;;;13.63;7.70;;;10.00;99.90;;;;;;5076728;28;20114;-88
2023/10/19 04:26:39;;;;;;;13.52;7.13;;;10.00;99.90;;;;;;5077343;28;20051;-88
2023/10/19 04:29:12;;;;;;;12.25;6.25;;;10.00;99.90;;;;;;5093358;28;20060;-88
2023/10/19 04:31:49;;;;;;;11.27;5.47;;;10.00;99.90;;;;;;5076972;28;20578;-88
2023/10/19 04:34:18;;;;;;;13.32;6.20;;;10.00;99.90;;;;;;5093977;28;20405;-87
2023/10/19 04:36:44;;;;;;;12.93;6.53;;;10.10;99.90;;;;;;5082665;28;20035;-87
2023/10/19 04:39:13;;;;;;;10.93;5.72;;;10.10;99.90;;;;;;5076673;28;20046;-87
2023/10/19 04:41:40;;;;;;;10.73;5.40;;;10.10;99.90;;;;;;5093545;28;20553;-87
2023/10/19 04:44:08;;;;;;;11.35;6.07;;;10.10;99.90;;;;;;5076464;28;20043;-88
2023/10/19 04:46:34;;;;;;;11.27;5.65;;;10.10;99.90;;;;;;5076999;28;20035;-87
2023/10/19 04:48:59;;;;;;;18.30;16.50;;;10.10;99.90;;;;;;5093375;28;20415;-87
2023/10/19 04:51:25;;;;;;;9.82;5.03;;;10.20;99.90;;;;;;5076786;28;20034;-88
2023/10/19 04:53:51;;;;;;;11.32;5.45;;;10.20;99.90;;;;;;5093530;28;20031;-87
2023/10/19 04:56:16;;;;;;;11.05;5.70;;;10.20;99.90;;;;;;5076414;28;20050;-87
2023/10/19 04:58:42;;;;;;;11.57;5.55;;;10.20;99.90;;;;;;5076660;28;20031;-88
2023/10/19 05:01:07;;;;;;;12.57;8.13;;;10.20;99.90;;;;;;5093190;28;20456;-87
2023/10/19 05:03:34;;;;;;;10.82;6.07;;;10.20;99.90;;;;;;5093925;28;20071;-87
2023/10/19 05:06:01;;;;;;;11.35;6.50;;;10.20;99.90;;;;;;5093058;28;20065;-88
2023/10/19 05:08:27;;;;;;;12.43;6.30;;;10.30;99.90;;;;;;5092785;28;20032;-87
2023/10/19 05:10:54;;;;;;;10.40;5.25;;;10.30;99.90;;;;;;5076623;28;20040;-87
2023/10/19 05:13:21;;;;;;;13.07;6.70;;;10.20;99.90;;;;;;5093309;28;20071;-88
2023/10/19 05:15:47;;;;;;;10.32;5.13;;;10.30;99.90;;;;;;5093088;28;20043;-88
2023/10/19 05:18:13;;;;;;;10.93;5.78;;;10.30;99.90;;;;;;5076671;28;20610;-88
2023/10/19 05:20:40;;;;;;;17.92;16.17;;;10.30;99.90;;;;;;5076506;28;20066;-88
2023/10/19 05:23:08;;;;;;;10.35;5.10;;;10.40;99.90;;;;;;5096980;28;20410;-87
2023/10/19 05:25:36;;;;;;;10.45;5.40;;;10.40;99.90;;;;;;5097166;28;20463;-87
2023/10/19 05:28:02;;;;;;;9.98;4.93;;;10.40;99.90;;;;;;5079848;28;20050;-87
2023/10/19 05:30:29;;;;;;;10.65;5.65;;;10.40;99.90;;;;;;5080512;27;20035;-88
2023/10/19 05:32:55;;;;;;;8.82;5.10;;;10.30;99.90;;;;;;5083411;28;20122;-88
2023/10/19 05:35:26;;;;;;;10.60;5.25;;;10.40;99.90;;;;;;5080135;28;20169;-87
2023/10/19 05:37:52;;;;;;;11.23;5.68;;;10.40;99.90;;;;;;5097094;28;20039;-88
2023/10/19 05:40:19;;;;;;;12.02;5.65;;;10.30;99.90;;;;;;5080003;28;20113;-87
2023/10/19 05:42:46;;;;;;;11.85;5.55;;;10.30;99.90;;;;;;5079800;28;20039;-88
2023/10/19 05:45:16;;;;;;;11.18;6.07;;;10.40;99.90;;;;;;5079622;28;20558;-87
2023/10/19 05:47:43;;;;;;;10.90;5.38;;;10.40;99.90;;;;;;5079787;28;20192;-88
2023/10/19 05:50:14;;;;;;;11.55;5.40;;;10.40;99.90;;;;;;5096328;28;20047;-88
2023/10/19 05:52:43;;;;;;;11.27;6.75;;;10.40;99.90;;;;;;5079179;28;20513;-88
2023/10/19 05:55:12;;;;;;;9.98;5.65;;;10.40;99.90;;;;;;5096296;28;20040;-89
2023/10/19 05:57:40;;;;;;;11.32;6.60;;;10.40;99.90;;;;;;5096056;28;20044;-88
2023/10/19 06:00:12;;;;;;;12.40;7.15;;;10.40;99.90;;;;;;5079212;28;20384;-89
2023/10/19 06:02:39;;;;;;;11.13;6.13;;;10.40;99.90;;;;;;5096623;28;20133;-89
2023/10/19 06:05:06;;;;;;;11.30;5.95;;;10.40;99.90;;;;;;5078988;28;20075;-88
2023/10/19 06:07:32;;;;;;;11.10;5.85;;;10.40;99.90;;;;;;5096608;28;20114;-88
2023/10/19 06:10:00;;;;;;;16.38;14.77;;;10.50;99.90;;;;;;5098715;27;20118;-89
2023/10/19 06:12:26;;;;;;;10.93;6.13;;;10.50;99.90;;;;;;5078921;28;20039;-88
2023/10/19 06:14:51;;;;;;;10.30;5.97;;;10.60;99.90;;;;;;5079746;28;20066;-88
2023/10/19 06:17:18;;;;;;;8.93;4.65;;;10.50;99.90;;;;;;5100633;28;20494;-89
2023/10/19 06:19:45;;;;;;;10.07;5.72;;;10.50;99.90;;;;;;5101766;27;20079;-88
2023/10/19 06:22:12;;;;;;;11.95;5.95;;;10.50;99.90;;;;;;5084511;28;20039;-88
2023/10/19 06:24:37;;;;;;;9.32;5.32;;;10.50;99.90;;;;;;5086932;27;20084;-88
2023/10/19 06:27:04;;;;;;;11.15;6.65;;;10.50;99.90;;;;;;5085283;27;20036;-88
2023/10/19 06:29:29;;;;;;;11.88;6.47;;;10.50;99.90;;;;;;5089969;27;20032;-88
2023/10/19 06:31:55;;;;;;;11.38;6.00;;;10.50;99.90;;;;;;5084962;27;20131;-88
2023/10/19 06:34:21;;;;;;;9.80;5.10;;;10.60;99.90;;;;;;5088077;27;20059;-88
2023/10/19 06:36:46;;;;;;;10.00;5.13;;;10.60;99.90;;;;;;5110651;27;20551;-88
2023/10/19 06:39:13;;;;;;;10.98;6.40;;;10.60;99.90;;;;;;5096760;28;20559;-88
2023/10/19 06:41:39;;;;;;;11.10;6.30;;;10.60;99.90;;;;;;5083751;27;20137;-88
2023/10/19 06:44:05;;;;;;;10.75;6.68;;;10.60;99.90;;;;;;5085735;27;20071;-88
2023/10/19 06:46:31;;;;;;;10.50;5.50;;;10.60;99.90;;;;;;5095742;27;20050;-88
2023/10/19 06:49:00;;;;;;;9.90;5.15;;;10.60;99.90;;;;;;5101843;27;20035;-88
2023/10/19 06:51:26;;;;;;;10.55;6.20;;;10.60;99.90;;;;;;5086569;27;20034;-88
2023/10/19 06:53:52;;;;;;;11.02;6.53;;;10.60;99.90;;;;;;5086783;27;20031;-88
2023/10/19 06:56:18;;;;;;;9.82;5.07;;;10.70;99.90;;;;;;5086341;27;20080;-88
2023/10/19 06:58:44;;;;;;;9.70;5.18;;;10.70;99.90;;;;;;5086025;27;20114;-88
2023/10/19 07:01:10;;;;;;;9.95;5.13;;;10.70;99.90;;;;;;5105536;27;20289;-87
2023/10/19 07:03:36;;;;;;;8.75;3.85;;;10.70;99.90;;;;;;5077008;28;20058;-88
2023/10/19 07:06:02;;;;;;;11.15;5.28;;;10.70;99.90;;;;;;5079676;28;20598;-87
2023/10/19 07:08:28;;;;;;;11.45;5.65;;;10.70;99.90;;;;;;5094666;28;20040;-88
2023/10/19 07:10:54;;;;;;;11.82;5.25;;;10.80;99.90;;;;;;5078268;28;20036;-88
2023/10/19 07:13:20;;;;;;;10.55;5.90;;;10.80;99.90;;;;;;5086437;28;20577;-88
2023/10/19 07:15:46;;;;;;;11.27;5.57;;;10.80;99.90;;;;;;5083716;28;20039;-88
2023/10/19 07:18:13;;;;;;;10.07;5.63;;;10.80;99.90;;;;;;5087169;27;20368;-88
2023/10/19 07:20:39;;;;;;;10.35;5.47;;;10.80;99.90;;;;;;5088195;27;20123;-88
2023/10/19 07:23:26;;;;;;;10.23;6.05;;;10.80;99.90;;;;;;5081346;28;20118;-86
2023/10/19 07:25:59;;;;;;;11.90;6.28;;;10.80;99.90;;;;;;5080837;28;20039;-88
2023/10/19 07:28:29;;;;;;;12.10;6.15;;;10.80;99.90;;;;;;5071150;28;20031;-88
2023/10/19 07:30:55;;;;;;;11.35;6.65;;;10.80;99.90;;;;;;5095771;28;20123;-88
2023/10/19 07:33:22;;;;;;;14.25;6.03;;;10.90;99.90;;;;;;5087021;28;20043;-87
2023/10/19 07:35:54;;;;;;;11.55;6.22;;;10.90;99.90;;;;;;5079910;28;20047;-88
2023/10/19 07:38:22;;;;;;;13.43;5.80;;;10.90;99.90;;;;;;5088812;27;20047;-88
2023/10/19 07:40:48;;;;;;;12.52;6.95;;;10.90;99.90;;;;;;5103889;27;20190;-88
2023/10/19 07:43:13;;;;;;;11.95;6.68;;;10.90;99.90;;;;;;5085562;28;20122;-88
2023/10/19 07:45:39;;;;;;;12.25;6.85;;;10.90;99.90;;;;;;5086403;27;20558;-88
2023/10/19 07:48:10;;;;;;;19.67;17.88;;;10.90;99.90;;;;;;5104925;27;20067;-87
2023/10/19 07:50:37;;;;;;;13.63;6.95;;;11.00;99.90;;;;;;5084372;27;20116;-88
2023/10/19 07:53:04;;;;;;;12.60;6.50;;;11.00;99.90;;;;;;5081437;28;20035;-87
2023/10/19 07:55:33;;;;;;;12.98;6.75;;;11.00;99.90;;;;;;5077133;28;20039;-87
2023/10/19 07:58:08;;;;;;;12.52;7.15;;;11.00;99.90;;;;;;5084846;28;20036;-88
2023/10/19 08:00:34;;;;;;;12.57;7.65;;;11.00;99.90;;;;;;5085411;28;20044;-88
2023/10/19 08:03:00;;;;;;;14.98;7.78;;;11.00;99.90;;;;;;5077702;28;20105;-89
2023/10/19 08:05:26;;;;;;;12.43;7.18;;;11.00;99.90;;;;;;5086149;28;20076;-88
2023/10/19 08:07:52;;;;;;;12.40;7.65;;;11.00;99.90;;;;;;5077316;28;20040;-88
2023/10/19 08:10:19;;;;;;;13.85;8.05;;;11.00;99.90;;;;;;5076104;28;20054;-88
2023/10/19 08:12:49;;;;;;;21.90;19.73;;;11.00;99.90;;;;;;5091747;28;20067;-88
2023/10/19 08:15:16;;;;;;;20.13;18.23;;;11.10;99.90;;;;;;5073135;28;20040;-89
2023/10/19 08:17:43;;;;;;;14.85;7.75;;;11.20;99.90;;;;;;5074212;28;20536;-88
2023/10/19 08:20:22;;;;;;;13.27;7.43;;;11.20;99.90;;;;;;5093164;28;20063;-89
2023/10/19 08:22:49;;;;;;;14.35;8.13;;;11.20;99.90;;;;;;5074886;28;20047;-88
2023/10/19 08:25:15;;;;;;;15.18;8.38;;;11.20;99.90;;;;;;5078430;28;20034;-88
2023/10/19 08:27:45;;;;;;;15.27;8.65;;;11.20;99.90;;;;;;5076280;28;20032;-88
2023/10/19 08:30:13;;;;;;;14.60;8.23;;;11.20;99.90;;;;;;5075392;28;20051;-88
2023/10/19 08:32:39;;;;;;;17.67;9.20;;;11.20;99.90;;;;;;5077067;28;20040;-89
2023/10/19 08:35:06;;;;;;;24.73;22.08;;;11.30;99.90;;;;;;5093465;28;20047;-88
2023/10/19 08:37:32;;;;;;;19.02;10.68;;;11.40;99.90;;;;;;5078018;28;20040;-88
2023/10/19 08:39:57;;;;;;;15.07;7.97;;;11.40;99.90;;;;;;5094627;28;20409;-89
2023/10/19 08:42:24;;;;;;;24.35;21.95;;;11.40;99.90;;;;;;5087737;27;20375;-88
2023/10/19 08:44:49;;;;;;;14.68;8.60;;;11.50;99.90;;;;;;5086659;28;20028;-88
2023/10/19 08:47:15;;;;;;;15.23;8.98;;;11.50;99.90;;;;;;5085092;28;20039;-89
2023/10/19 08:49:41;;;;;;;16.80;9.55;;;11.60;99.90;;;;;;5086032;28;20035;-88
2023/10/19 08:52:08;;;;;;;14.38;7.95;;;11.50;99.90;;;;;;5099402;28;20032;-89
2023/10/19 08:54:34;;;;;;;25.77;23.27;;;11.60;99.90;;;;;;5077322;28;20420;-88
2023/10/19 08:57:00;;;;;;;17.23;9.38;;;11.60;99.90;;;;;;5103517;28;20032;-88
2023/10/19 08:59:26;;;;;;;16.92;10.00;;;11.70;99.90;;;;;;5084834;27;20109;-88
2023/10/19 09:02:03;;;;;;;27.25;24.63;;;11.70;99.90;;;;;;5105228;27;20118;-89
2023/10/19 09:04:30;;;;;;;19.23;10.40;;;11.80;99.90;;;;;;5090884;27;20263;-88
2023/10/19 09:06:55;;;;;;;28.75;26.08;;;11.80;99.90;;;;;;5101858;28;20067;-88
2023/10/19 09:09:25;;;;;;;18.00;10.43;;;11.80;99.90;;;;;;5080460;28;20067;-88
2023/10/19 09:11:52;;;;;;;16.00;9.18;;;11.80;99.90;;;;;;5088723;28;20039;-88
2023/10/19 09:14:33;;;;;;;19.30;11.13;;;11.80;99.90;;;;;;5080373;28;20071;-89
2023/10/19 09:17:00;;;;;;;21.15;10.68;;;11.80;99.90;;;;;;5080108;28;20096;-89
2023/10/19 09:19:49;;;;;;;16.10;10.23;;;11.80;99.90;;;;;;5080612;28;20035;-89
2023/10/19 09:22:22;;;;;;;18.75;9.93;;;11.80;99.90;;;;;;5087158;28;20040;-89
2023/10/19 09:24:53;;;;;;;20.52;11.82;;;11.90;99.90;;;;;;5080214;28;20398;-88
2023/10/19 09:27:21;;;;;;;18.73;10.98;;;11.90;99.90;;;;;;5080059;28;20042;-89
2023/10/19 09:29:48;;;;;;;16.65;9.80;;;11.90;99.90;;;;;;5080396;28;20400;-88
2023/10/19 09:32:14;;;;;;;17.00;9.55;;;11.90;99.90;;;;;;5080100;28;20123;-89
2023/10/19 09:34:43;;;;;;;18.40;9.85;;;11.90;99.90;;;;;;5085912;27;20137;-89
2023/10/19 09:37:11;;;;;;;16.83;9.60;;;11.90;99.90;;;;;;5089876;27;20035;-88
2023/10/19 09:39:37;;;;;;;15.60;9.43;;;11.90;99.90;;;;;;5098545;28;20031;-89
2023/10/19 09:42:16;;;;;;;16.15;9.23;;;12.00;99.90;;;;;;5081590;28;20115;-89
2023/10/19 09:44:48;;;;;;;17.55;9.27;;;12.00;99.90;;;;;;5079027;28;20027;-89
2023/10/19 09:47:26;;;;;;;16.70;10.90;;;12.00;99.90;;;;;;5096635;27;20042;-89
2023/10/19 09:49:55;;;;;;;17.05;9.57;;;12.00;99.90;;;;;;5081729;28;20071;-89
2023/10/19 09:52:21;;;;;;;16.73;9.63;;;12.00;99.90;;;;;;5086095;28;20073;-89
2023/10/19 09:55:10;;;;;;;16.40;10.23;;;12.00;99.90;;;;;;5118440;27;20035;-89
2023/10/19 09:58:02;;;;;;;17.45;10.50;;;12.10;99.90;;;;;;5086534;28;20449;-89
2023/10/19 10:00:31;;;;;;;27.10;24.50;;;12.10;99.90;;;;;;5094775;28;20117;-89
2023/10/19 10:02:57;;;;;;;17.45;9.70;;;12.20;99.90;;;;;;5114647;28;20048;-89
2023/10/19 10:05:41;;;;;;;15.68;8.90;;;12.20;99.90;;;;;;5080030;28;20092;-89
2023/10/19 10:08:20;;;;;;;15.95;8.82;;;12.20;99.90;;;;;;5078548;28;20036;-89
2023/10/19 10:10:49;;;;;;;17.55;9.55;;;12.20;99.90;;;;;;5079056;28;20105;-89
2023/10/19 10:13:37;;;;;;;16.35;8.70;;;12.20;99.90;;;;;;5086678;27;20042;-89
2023/10/19 10:16:04;;;;;;;25.17;22.17;;;12.30;99.90;;;;;;5093079;27;20031;-89
2023/10/19 10:18:36;;;;;;;16.35;8.88;;;12.30;99.90;;;;;;5092561;27;20035;-89
2023/10/19 10:21:12;;;;;;;15.40;9.88;;;12.40;99.90;;;;;;5093065;27;20031;-90
2023/10/19 10:23:55;;;;;;;30.02;27.17;;;12.30;99.90;;;;;;5087942;27;20045;-89
2023/10/19 10:26:26;;;;;;;15.55;9.23;;;12.40;99.90;;;;;;5092101;27;20046;-89
2023/10/19 10:29:20;;;;;;;15.65;8.50;;;12.50;99.90;;;;;;5101552;28;20032;-89
2023/10/19 10:31:50;;;;;;;16.15;8.13;;;12.40;99.90;;;;;;5078686;28;20062;-89
2023/10/19 10:34:36;;;;;;;26.55;23.85;;;12.40;99.90;;;;;;5079062;28;20039;-89
2023/10/19 10:37:10;;;;;;;17.00;10.23;;;12.60;99.90;;;;;;5096065;28;20043;-89
2023/10/19 10:39:38;;;;;;;16.73;9.52;;;12.60;99.90;;;;;;5095466;28;20035;-90
2023/10/19 10:42:09;;;;;;;15.95;10.45;;;12.50;99.90;;;;;;5078626;28;20040;-89
2023/10/19 10:44:38;;;;;;;27.30;24.48;;;12.60;99.90;;;;;;5079241;28;20043;-89
2023/10/19 10:47:07;;;;;;;18.85;10.75;;;12.60;99.90;;;;;;5078444;28;20042;-90
2023/10/19 10:49:33;;;;;;;26.35;23.85;;;12.60;99.90;;;;;;5078838;28;20036;-90
2023/10/19 10:51:59;;;;;;;27.52;24.88;;;12.70;99.90;;;;;;5087127;28;20042;-89
2023/10/19 10:54:24;;;;;;;27.08;24.58;;;12.80;99.90;;;;;;5078638;28;20494;-90
2023/10/19 10:56:50;;;;;;;17.65;10.70;;;12.90;99.90;;;;;;5078662;28;20043;-90
2023/10/19 10:59:16;;;;;;;17.35;10.10;;;12.80;99.90;;;;;;5095549;28;20118;-90
2023/10/19 11:01:42;;;;;;;18.55;10.25;;;12.80;99.90;;;;;;5095300;28;20040;-89
2023/10/19 11:04:10;;;;;;;18.38;10.75;;;12.80;99.90;;;;;;5078500;28;20036;-89
2023/10/19 11:06:55;;;;;;;16.67;9.50;;;12.80;99.90;;;;;;5095169;28;20032;-90
2023/10/19 11:09:24;;;;;;;18.38;11.10;;;12.80;99.90;;;;;;5078538;28;20035;-90
2023/10/19 11:11:52;;;;;;;26.83;24.17;;;12.80;99.90;;;;;;5079280;28;20028;-90
2023/10/19 11:14:17;;;;;;;26.63;24.08;;;12.90;99.90;;;;;;5077990;28;20043;-90
2023/10/19 11:16:43;;;;;;;20.80;12.63;;;12.90;99.90;;;;;;5076991;28;20483;-90
2023/10/19 11:19:09;;;;;;;29.27;26.38;;;12.90;99.90;;;;;;5093730;28;20122;-89
2023/10/19 11:21:36;;;;;;;18.92;12.52;;;12.90;99.90;;;;;;5077934;28;20043;-90
2023/10/19 11:24:01;;;;;;;19.98;12.02;;;12.90;99.90;;;;;;5077891;28;20043;-90
2023/10/19 11:26:27;;;;;;;19.25;10.77;;;12.90;99.90;;;;;;5083456;28;20131;-90
2023/10/19 11:29:01;;;;;;;19.08;12.00;;;12.90;99.90;;;;;;5081985;28;20036;-90
2023/10/19 11:31:27;;;;;;;23.90;14.05;;;13.00;99.90;;;;;;5072289;27;20035;-91
2023/10/19 11:34:01;;;;;;;21.48;12.27;;;13.00;99.90;;;;;;5087908;27;20518;-90
2023/10/19 11:36:26;;;;;;;27.45;24.73;;;13.10;99.90;;;;;;5104540;27;20035;-91
2023/10/19 11:38:53;;;;;;;15.65;9.95;;;13.30;99.90;;;;;;5103876;27;20043;-90
2023/10/19 11:41:19;;;;;;;18.80;11.32;;;13.40;99.90;;;;;;5105139;27;20039;-91
2023/10/19 11:43:49;;;;;;;22.35;10.50;;;13.40;99.90;;;;;;5087501;28;20039;-91
2023/10/19 11:46:17;;;;;;;23.85;21.63;;;13.40;99.90;;;;;;5102612;27;20053;-91
2023/10/19 11:48:43;;;;;;;17.80;9.95;;;13.60;99.90;;;;;;5103434;27;20031;-90
2023/10/19 11:51:10;;;;;;;16.67;9.60;;;13.70;99.90;;;;;;5101228;28;20043;-90
2023/10/19 11:53:38;;;;;;;19.35;10.15;;;13.80;99.90;;;;;;5104139;27;20118;-91
2023/10/19 11:56:12;;;;;;;22.73;20.48;;;13.90;99.90;;;;;;5084733;27;20104;-90
2023/10/19 11:58:46;;;;;;;18.88;12.20;;;14.00;99.90;;;;;;5088667;27;20046;-90
2023/10/19 12:01:12;;;;;;;16.20;9.80;;;14.00;99.90;;;;;;5104209;27;20039;-90
2023/10/19 12:03:40;;;;;;;16.85;11.18;;;14.00;99.90;;;;;;5088218;28;20028;-91
2023/10/19 12:06:06;;;;;;;16.35;9.98;;;14.00;99.90;;;;;;5077560;28;20032;-91
2023/10/19 12:08:35;;;;;;;16.83;11.27;;;14.00;99.90;;;;;;5101095;28;20444;-90
2023/10/19 12:11:03;;;;;;;21.08;18.92;;;14.00;99.90;;;;;;5094259;28;20035;-90
2023/10/19 12:13:29;;;;;;;16.00;10.18;;;14.10;99.90;;;;;;5102523;28;20044;-91
2023/10/19 12:15:55;;;;;;;23.20;20.95;;;14.10;99.90;;;;;;5085471;28;20043;-90
2023/10/19 12:18:21;;;;;;;18.75;11.93;;;14.20;99.90;;;;;;5093407;28;20531;-90
2023/10/19 12:20:47;;;;;;;15.40;9.63;;;14.20;99.90;;;;;;5093181;28;20031;-90
2023/10/19 12:23:14;;;;;;;17.00;10.10;;;14.20;99.90;;;;;;5076785;28;20039;-90
2023/10/19 12:25:42;;;;;;;23.15;20.95;;;14.30;99.90;;;;;;5093534;28;20115;-91
2023/10/19 12:28:08;;;;;;;23.27;20.98;;;14.40;99.90;;;;;;5093761;28;20118;-90
2023/10/19 12:30:36;;;;;;;19.13;11.60;;;14.50;99.90;;;;;;5076134;28;20079;-91
2023/10/19 12:33:11;;;;;;;14.55;8.90;;;14.50;99.90;;;;;;5076938;28;20058;-90
2023/10/19 12:35:44;;;;;;;21.58;19.48;;;14.50;99.90;;;;;;5094063;28;20039;-90
2023/10/19 12:38:15;;;;;;;21.20;19.00;;;14.50;99.90;;;;;;5076986;28;20035;-90
2023/10/19 12:40:46;;;;;;;17.25;9.00;;;14.50;99.90;;;;;;5075834;28;20066;-90
2023/10/19 12:43:13;;;;;;;21.05;9.40;;;14.40;99.90;;;;;;5076079;28;20042;-90
2023/10/19 12:45:40;;;;;;;21.23;18.60;;;14.40;99.90;;;;;;5076952;28;20379;-90
2023/10/19 12:48:06;;;;;;;17.08;9.02;;;14.50;99.90;;;;;;5077037;28;20032;-91
2023/10/19 12:50:34;;;;;;;17.48;10.73;;;14.60;99.90;;;;;;5076672;28;20051;-90
2023/10/19 12:53:00;;;;;;;22.15;19.85;;;14.50;99.90;;;;;;5093375;28;20055;-90
2023/10/19 12:55:30;;;;;;;18.40;10.30;;;14.50;99.90;;;;;;5077155;28;20040;-90
2023/10/19 12:57:57;;;;;;;18.27;12.23;;;14.50;99.90;;;;;;5077096;28;20043;-90
2023/10/19 13:00:23;;;;;;;19.10;11.30;;;14.40;99.90;;;;;;5075669;28;20050;-90
2023/10/19 13:02:50;;;;;;;23.90;21.42;;;14.30;99.90;;;;;;5076508;28;20050;-90
2023/10/19 13:05:18;;;;;;;19.30;13.63;;;14.30;99.90;;;;;;5079339;28;20040;-87
2023/10/19 13:07:45;;;;;;;22.02;10.52;;;14.20;99.90;;;;;;5086456;28;20040;-91
2023/10/19 13:10:13;;;;;;;22.38;13.43;;;14.20;99.90;;;;;;5077831;28;20039;-91
2023/10/19 13:12:40;;;;;;;21.77;14.63;;;14.10;99.90;;;;;;5078320;28;20384;-90
2023/10/19 13:15:12;;;;;;;25.98;23.38;;;14.10;99.90;;;;;;5081864;28;20088;-90
2023/10/19 13:17:39;;;;;;;19.00;13.48;;;14.10;99.90;;;;;;5077590;28;20035;-90
2023/10/19 13:20:16;;;;;;;21.85;11.02;;;14.10;99.90;;;;;;5101887;28;20039;-91
2023/10/19 13:22:42;;;;;;;28.02;25.33;;;14.10;99.90;;;;;;5084602;28;20055;-91
2023/10/19 13:25:17;;;;;;;19.02;12.45;;;14.10;99.90;;;;;;5079183;28;20040;-90